createdAt,value
2023-01-17T00:02:55.481Z,1.50
2023-01-17T00:06:09.944Z,0.82
2023-01-17T00:09:28.092Z,1.38
2023-01-17T00:12:24.991Z,1.60
2023-01-17T00:15:43.289Z,1.67
2023-01-17T00:18:34.549Z,0.73
2023-01-17T00:21:42.653Z,2.65
2023-01-17T00:24:48.252Z,3.58
2023-01-17T00:27:43.510Z,1.58
2023-01-17T00:30:43.617Z,1.63
2023-01-17T00:33:43.956Z,1.67
2023-01-17T00:36:33.164Z,1.27
2023-01-17T00:39:24.575Z,1.30
2023-01-17T00:42:23.877Z,1.08
2023-01-17T00:45:30.294Z,2.75
2023-01-17T00:48:36.179Z,1.30
2023-01-17T00:51:49.435Z,1.52
2023-01-17T00:54:58.367Z,3.53
2023-01-17T01:01:40.708Z,2.28
2023-01-17T01:05:08.899Z,2.72
2023-01-17T01:08:19.703Z,2.13
2023-01-17T01:11:39.539Z,1.88
2023-01-17T01:14:54.181Z,2.03
2023-01-17T01:17:59.651Z,1.73
2023-01-17T01:21:26.463Z,2.03
2023-01-17T01:24:39.292Z,2.03
2023-01-17T01:27:52.102Z,1.58
2023-01-17T01:30:59.511Z,4.63
2023-01-17T01:34:01.557Z,2.42
2023-01-17T01:36:56.189Z,1.48
2023-01-17T01:39:45.524Z,1.50
2023-01-17T01:42:41.671Z,1.38
2023-01-17T01:45:42.309Z,1.63
2023-01-17T01:49:08.886Z,1.73
2023-01-17T01:51:59.424Z,1.15
2023-01-17T01:55:06.845Z,1.35
2023-01-17T01:57:58.131Z,1.58
2023-01-17T02:00:49.601Z,1.85
2023-01-17T02:03:39.500Z,4.47
2023-01-17T02:06:50.515Z,1.60
2023-01-17T02:09:39.993Z,1.83
2023-01-17T02:12:27.453Z,1.48
2023-01-17T02:15:17.524Z,1.80
2023-01-17T02:18:57.990Z,1.40
2023-01-17T02:25:07.330Z,2.53
2023-01-17T02:28:50.964Z,4.30
2023-01-17T02:31:49.905Z,1.45
2023-01-17T02:35:00.636Z,2.38
2023-01-17T02:38:11.068Z,4.53
2023-01-17T02:41:24.387Z,4.15
2023-01-17T02:44:19.989Z,3.92
2023-01-17T02:47:28.671Z,4.70
2023-01-17T02:50:35.949Z,3.13
2023-01-17T02:54:10.305Z,2.78
2023-01-17T02:57:42.107Z,3.55
2023-01-17T03:01:07.731Z,2.60
2023-01-17T03:04:09.134Z,2.72
2023-01-17T03:07:08.214Z,2.03
2023-01-17T03:10:37.613Z,2.33
2023-01-17T03:13:31.076Z,2.63
2023-01-17T03:16:30.618Z,2.10
2023-01-17T03:19:47.313Z,2.70
2023-01-17T03:22:38.636Z,2.72
2023-01-17T03:25:32.935Z,6.15
2023-01-17T03:28:25.581Z,6.18
2023-01-17T03:31:21.980Z,8.07
2023-01-17T03:34:54.466Z,4.60
2023-01-17T03:38:05.230Z,4.55
2023-01-17T03:44:13.220Z,6.68
2023-01-17T03:47:08.755Z,4.07
2023-01-17T03:49:57.092Z,6.53
2023-01-17T03:55:52.528Z,3.30
2023-01-17T03:58:53.606Z,5.55
2023-01-17T04:01:41.182Z,4.70
2023-01-17T04:04:29.586Z,2.83
2023-01-17T04:07:24.231Z,4.15
2023-01-17T04:10:20.734Z,3.22
2023-01-17T04:13:07.748Z,2.97
2023-01-17T04:16:07.697Z,4.13
2023-01-17T04:18:59.609Z,3.97
2023-01-17T04:21:55.528Z,3.28
2023-01-17T04:24:51.021Z,3.70
2023-01-17T04:27:47.471Z,5.40
2023-01-17T04:30:44.972Z,4.75
2023-01-17T04:33:35.112Z,6.88
2023-01-17T04:36:32.724Z,6.88
2023-01-17T04:39:26.804Z,7.47
2023-01-17T04:42:16.293Z,7.93
2023-01-17T04:45:11.646Z,11.00
2023-01-17T04:48:12.366Z,9.43
2023-01-17T04:51:06.057Z,8.38
2023-01-17T04:53:56.048Z,7.18
2023-01-17T04:56:46.230Z,5.90
2023-01-17T04:59:33.325Z,7.13
2023-01-17T05:02:24.780Z,8.57
2023-01-17T05:05:15.691Z,6.93
2023-01-17T05:08:05.935Z,5.25
2023-01-17T05:10:53.444Z,8.30
2023-01-17T05:13:40.727Z,7.43
2023-01-17T05:16:27.804Z,5.65
2023-01-17T05:19:14.770Z,6.32
2023-01-17T05:22:07.175Z,4.85
2023-01-17T05:24:54.167Z,5.00
2023-01-17T05:27:41.009Z,5.05
2023-01-17T05:30:43.496Z,5.37
2023-01-17T05:33:30.324Z,3.65
2023-01-17T05:36:26.846Z,2.47
2023-01-17T05:39:17.731Z,3.70
2023-01-17T05:42:19.792Z,2.83
2023-01-17T05:45:16.843Z,2.33
2023-01-17T05:48:15.702Z,3.03
2023-01-17T05:51:15.812Z,1.80
2023-01-17T05:54:10.466Z,3.53
2023-01-17T05:56:59.935Z,3.45
2023-01-17T05:59:56.820Z,3.33
2023-01-17T06:02:47.189Z,3.10
2023-01-17T06:05:37.850Z,4.63
2023-01-17T06:08:35.217Z,8.73
2023-01-17T06:11:27.665Z,13.07
2023-01-17T06:14:14.780Z,11.93
2023-01-17T06:17:14.470Z,6.88
2023-01-17T06:20:01.552Z,6.85
2023-01-17T06:22:49.656Z,18.23
2023-01-17T06:25:41.759Z,15.38
2023-01-17T06:28:28.821Z,12.25
2023-01-17T06:31:19.276Z,15.05
2023-01-17T06:34:06.372Z,11.93
2023-01-17T06:36:55.336Z,11.07
2023-01-17T06:39:45.144Z,12.93
2023-01-17T06:42:33.282Z,20.80
2023-01-17T06:45:24.269Z,16.67
2023-01-17T06:48:18.752Z,12.88
2023-01-17T06:51:11.866Z,14.50
2023-01-17T06:54:01.937Z,15.30
2023-01-17T06:56:56.526Z,19.75
2023-01-17T06:59:45.910Z,22.85
2023-01-17T07:02:33.165Z,20.17
2023-01-17T07:05:20.647Z,29.50
2023-01-17T07:08:22.485Z,27.02
2023-01-17T07:11:15.255Z,25.38
2023-01-17T07:14:02.952Z,23.45
2023-01-17T07:19:42.918Z,19.75
2023-01-17T07:22:30.339Z,19.77
2023-01-17T07:25:42.983Z,18.42
2023-01-17T07:28:35.596Z,16.10
2023-01-17T07:31:22.663Z,17.38
2023-01-17T07:34:19.028Z,22.45
2023-01-17T07:37:09.290Z,19.13
2023-01-17T07:40:04.299Z,27.33
2023-01-17T07:43:00.229Z,20.42
2023-01-17T07:46:19.436Z,59.38
2023-01-17T07:49:15.888Z,20.05
2023-01-17T07:52:07.195Z,17.60
2023-01-17T07:55:01.738Z,15.93
2023-01-17T07:57:56.585Z,16.25
2023-01-17T08:00:49.639Z,23.30
2023-01-17T08:03:49.519Z,20.60
2023-01-17T08:06:47.223Z,19.13
2023-01-17T08:09:49.350Z,22.45
2023-01-17T08:12:59.761Z,22.00
2023-01-17T08:15:54.778Z,18.80
2023-01-17T08:18:53.882Z,20.90
2023-01-17T08:21:40.757Z,29.73
2023-01-17T08:24:38.260Z,24.85
2023-01-17T08:27:40.770Z,29.75
2023-01-17T08:30:37.173Z,27.75
2023-01-17T08:33:24.291Z,33.28
2023-01-17T08:36:14.061Z,29.20
2023-01-17T08:39:06.432Z,24.02
2023-01-17T08:41:59.208Z,27.85
2023-01-17T08:44:48.657Z,27.10
2023-01-17T08:47:40.992Z,20.55
2023-01-17T08:50:41.949Z,17.92
2023-01-17T08:53:43.341Z,13.60
2023-01-17T08:56:36.353Z,17.17
2023-01-17T08:59:34.889Z,16.42
2023-01-17T09:02:45.813Z,17.73
2023-01-17T09:05:40.614Z,20.02
2023-01-17T09:08:31.915Z,18.80
2023-01-17T09:11:24.189Z,20.77
2023-01-17T09:17:28.661Z,20.88
2023-01-17T09:20:15.807Z,27.73
2023-01-17T09:23:07.301Z,25.65
2023-01-17T09:26:02.810Z,25.02
2023-01-17T09:29:03.083Z,34.35
2023-01-17T09:32:03.541Z,30.35
2023-01-17T09:36:43.674Z,84.00
2023-01-17T09:38:52.904Z,33.10
2023-01-17T09:42:13.316Z,66.57
2023-01-17T09:45:16.045Z,40.55
2023-01-17T09:48:12.569Z,31.38
2023-01-17T09:51:15.618Z,29.42
2023-01-17T09:54:20.147Z,17.00
2023-01-17T10:00:59.723Z,18.70
2023-01-17T10:04:15.003Z,18.45
2023-01-17T10:07:45.284Z,20.95
2023-01-17T10:11:10.920Z,25.75
2023-01-17T10:14:20.925Z,21.40
2023-01-17T10:21:19.399Z,27.80
2023-01-17T10:24:24.932Z,16.77
2023-01-17T10:27:47.669Z,17.13
2023-01-17T10:34:22.688Z,16.65
2023-01-17T10:37:20.146Z,16.10
2023-01-17T10:40:46.433Z,18.88
2023-01-17T10:44:03.083Z,18.23
2023-01-17T10:47:07.520Z,15.57
2023-01-17T10:50:06.810Z,19.48
2023-01-17T10:53:02.927Z,22.60
2023-01-17T10:56:13.196Z,16.10
2023-01-17T10:59:41.139Z,19.95
2023-01-17T11:02:35.679Z,19.77
2023-01-17T11:05:38.620Z,16.60
2023-01-17T11:12:02.192Z,16.50
2023-01-17T11:18:51.167Z,13.77
2023-01-17T11:22:23.256Z,16.05
2023-01-17T11:25:27.471Z,17.52
2023-01-17T11:28:34.973Z,21.63
2023-01-17T11:31:25.712Z,30.27
2023-01-17T11:34:33.087Z,29.73
2023-01-17T11:38:16.823Z,17.05
2023-01-17T11:41:26.944Z,14.38
2023-01-17T11:44:43.065Z,15.32
2023-01-17T11:47:36.919Z,12.85
2023-01-17T11:50:32.290Z,15.90
2023-01-17T11:53:41.447Z,17.92
2023-01-17T11:56:50.591Z,19.05
2023-01-17T11:59:48.543Z,14.23
2023-01-17T12:02:52.372Z,27.17
2023-01-17T12:06:31.803Z,15.10
2023-01-17T12:09:43.405Z,20.17
2023-01-17T12:13:11.453Z,18.77
2023-01-17T12:16:35.643Z,26.15
2023-01-17T12:19:28.532Z,32.40
2023-01-17T12:22:24.632Z,34.83
2023-01-17T12:25:30.528Z,28.38
2023-01-17T12:28:56.014Z,41.47
2023-01-17T12:32:04.999Z,34.92
2023-01-17T12:38:04.273Z,23.23
2023-01-17T12:41:00.041Z,24.17
2023-01-17T12:43:57.304Z,24.85
2023-01-17T12:46:50.298Z,27.40
2023-01-17T12:50:06.601Z,23.65
2023-01-17T12:53:06.256Z,22.98
2023-01-17T12:56:19.660Z,20.63
2023-01-17T12:59:25.068Z,20.75
2023-01-17T13:03:08.940Z,24.20
2023-01-17T13:05:59.873Z,22.50
2023-01-17T13:08:59.988Z,28.48
2023-01-17T13:11:51.952Z,22.75
2023-01-17T13:14:41.810Z,22.80
2023-01-17T13:17:57.439Z,23.20
2023-01-17T13:20:56.357Z,22.50
2023-01-17T13:24:06.158Z,22.05
2023-01-17T13:26:56.202Z,19.92
2023-01-17T13:30:32.367Z,19.17
2023-01-17T13:33:27.897Z,18.05
2023-01-17T13:36:47.656Z,18.15
2023-01-17T13:40:18.429Z,19.23
2023-01-17T13:43:13.566Z,19.83
2023-01-17T13:46:05.641Z,26.58
2023-01-17T13:49:36.895Z,23.27
2023-01-17T13:52:33.260Z,23.35
2023-01-17T13:55:53.532Z,21.23
2023-01-17T13:58:57.559Z,22.00
2023-01-17T14:02:13.285Z,21.05
2023-01-17T14:05:35.637Z,19.77
2023-01-17T14:08:24.720Z,19.83
2023-01-17T14:11:14.706Z,18.35
2023-01-17T14:14:53.260Z,19.85
2023-01-17T14:18:30.994Z,16.95
2023-01-17T14:21:44.893Z,18.23
2023-01-17T14:24:40.747Z,15.55
2023-01-17T14:27:30.806Z,15.93
2023-01-17T14:30:21.117Z,14.75
2023-01-17T14:33:18.552Z,12.35
2023-01-17T14:36:08.699Z,14.10
2023-01-17T14:38:57.401Z,11.60
2023-01-17T14:41:53.449Z,8.25
2023-01-17T14:45:04.679Z,7.18
2023-01-17T14:47:53.429Z,7.65
2023-01-17T14:50:53.397Z,4.57
2023-01-17T14:53:53.858Z,5.10
2023-01-17T14:56:43.792Z,4.85
2023-01-17T14:59:32.806Z,6.65
2023-01-17T15:02:28.915Z,4.90
2023-01-17T15:05:25.928Z,5.65
2023-01-17T15:08:15.417Z,4.63
2023-01-17T15:11:23.908Z,4.72
2023-01-17T15:14:45.230Z,4.85
2023-01-17T15:17:39.469Z,3.28
2023-01-17T15:20:27.317Z,4.93
2023-01-17T15:23:53.559Z,3.08
2023-01-17T15:26:55.317Z,3.92
2023-01-17T15:30:09.992Z,4.30
2023-01-17T15:33:11.535Z,5.72
2023-01-17T15:36:58.660Z,6.95
2023-01-17T15:42:58.564Z,5.57
2023-01-17T15:46:04.241Z,6.57
2023-01-17T15:48:56.049Z,5.68
2023-01-17T15:51:58.767Z,4.40
2023-01-17T15:54:53.674Z,5.93
2023-01-17T15:57:43.397Z,5.50
2023-01-17T16:01:00.379Z,4.72
2023-01-17T16:03:57.380Z,5.25
2023-01-17T16:06:56.083Z,5.78
2023-01-17T16:09:47.365Z,5.85
2023-01-17T16:12:51.485Z,4.95
2023-01-17T16:19:24.369Z,6.10
2023-01-17T16:22:26.327Z,6.25
2023-01-17T16:25:30.524Z,9.05
2023-01-17T16:28:23.489Z,7.32
2023-01-17T16:31:20.228Z,7.63
2023-01-17T16:34:21.700Z,9.18
2023-01-17T16:37:31.816Z,8.48
2023-01-17T16:40:26.683Z,9.00
2023-01-17T16:43:43.317Z,7.88
2023-01-17T16:46:53.024Z,9.25
2023-01-17T16:49:48.476Z,8.63
2023-01-17T16:52:44.597Z,7.45
2023-01-17T16:55:34.923Z,7.72
2023-01-17T16:58:34.964Z,10.48
2023-01-17T17:01:45.724Z,20.48
2023-01-17T17:04:43.171Z,15.48
2023-01-17T17:10:57.733Z,12.50
2023-01-17T17:14:39.717Z,11.77
2023-01-17T17:17:33.764Z,11.68
2023-01-17T17:21:00.972Z,12.20
2023-01-17T17:23:57.997Z,12.20
2023-01-17T17:27:14.939Z,8.82
2023-01-17T17:30:14.064Z,8.75
2023-01-17T17:33:17.057Z,8.60
2023-01-17T17:39:37.370Z,10.55
2023-01-17T17:42:27.673Z,10.23
2023-01-17T17:49:10.995Z,11.02
2023-01-17T17:52:32.339Z,11.68
2023-01-17T17:55:56.085Z,10.50
2023-01-17T18:00:03.229Z,11.68
2023-01-17T18:03:03.095Z,11.90
2023-01-17T18:15:56.207Z,11.18
2023-01-17T18:22:44.614Z,13.70
2023-01-17T18:25:59.952Z,15.77
2023-01-17T18:29:06.073Z,18.40
2023-01-17T18:32:38.508Z,18.48
2023-01-17T18:36:17.892Z,33.58
2023-01-17T18:44:45.112Z,25.17
2023-01-17T18:47:58.671Z,21.75
2023-01-17T18:51:34.034Z,25.02
2023-01-17T18:55:11.555Z,43.00
2023-01-17T19:05:00.234Z,21.35
2023-01-17T19:07:53.010Z,26.50
2023-01-17T19:14:54.618Z,29.38
2023-01-17T19:18:31.714Z,23.40
2023-01-17T19:27:05.077Z,20.42
2023-01-17T19:30:26.260Z,21.33
2023-01-17T19:33:18.128Z,23.95
2023-01-17T19:37:05.542Z,22.08
2023-01-17T20:25:38.125Z,32.85
2023-01-17T20:32:30.111Z,33.22
2023-01-17T20:35:28.772Z,34.80
2023-01-17T20:38:23.887Z,36.92
2023-01-17T20:41:18.493Z,32.72
2023-01-17T20:44:20.277Z,35.65
2023-01-17T20:47:10.768Z,40.20
2023-01-17T20:50:08.520Z,36.85
2023-01-17T20:53:33.127Z,44.00
2023-01-17T20:56:53.439Z,34.90
2023-01-17T20:59:40.395Z,36.17
2023-01-17T21:02:30.816Z,33.70
2023-01-17T21:05:32.659Z,34.58
2023-01-17T21:08:24.033Z,32.35
2023-01-17T21:11:39.797Z,28.90
2023-01-17T21:14:34.084Z,25.23
2023-01-17T21:17:22.205Z,23.92
2023-01-17T21:20:17.032Z,25.38
2023-01-17T21:23:26.933Z,26.25
2023-01-17T21:26:22.039Z,28.60
2023-01-17T21:29:19.200Z,30.73
2023-01-17T21:32:20.693Z,32.00
2023-01-17T21:35:08.678Z,35.70
2023-01-17T21:37:56.288Z,39.33
2023-01-17T21:43:46.847Z,46.25
2023-01-17T21:46:56.173Z,40.35
2023-01-17T21:49:46.790Z,40.17
2023-01-17T21:52:33.882Z,36.22
2023-01-17T21:55:50.160Z,37.42
2023-01-17T21:58:54.091Z,33.08
2023-01-17T22:01:43.393Z,34.70
2023-01-17T22:04:34.764Z,30.58
2023-01-17T22:07:22.263Z,33.63
2023-01-17T22:10:31.455Z,38.53
2023-01-17T22:13:37.073Z,47.80
2023-01-17T22:16:32.916Z,37.17
2023-01-17T22:19:20.512Z,29.02
2023-01-17T22:22:11.810Z,30.50
2023-01-17T22:25:01.376Z,32.95
2023-01-17T22:30:57.246Z,30.73
2023-01-17T22:33:46.800Z,27.52
2023-01-17T22:36:36.537Z,27.88
2023-01-17T22:39:23.419Z,29.38
2023-01-17T22:42:10.201Z,33.17
2023-01-17T22:44:57.810Z,30.90
2023-01-17T22:47:44.711Z,28.35
2023-01-17T22:50:31.499Z,27.20
2023-01-17T22:53:18.346Z,48.60
2023-01-17T22:56:13.021Z,45.87
2023-01-17T22:59:01.057Z,32.92
2023-01-17T23:01:47.985Z,33.13
2023-01-17T23:04:34.720Z,34.57
2023-01-17T23:07:27.877Z,33.08
2023-01-17T23:10:34.848Z,33.35
2023-01-17T23:13:21.725Z,43.25
2023-01-17T23:16:27.647Z,39.57
2023-01-17T23:19:24.306Z,40.58
2023-01-17T23:22:16.398Z,36.35
2023-01-17T23:25:13.317Z,41.30
2023-01-17T23:28:11.766Z,35.67
2023-01-17T23:31:07.345Z,39.58
2023-01-17T23:33:54.132Z,35.63
2023-01-17T23:36:40.972Z,34.47
2023-01-17T23:39:28.633Z,36.07
2023-01-17T23:45:21.708Z,34.78
2023-01-17T23:48:11.906Z,40.10
2023-01-17T23:51:01.042Z,38.97
2023-01-17T23:53:48.716Z,38.40
2023-01-17T23:56:35.469Z,25.70
2023-01-17T23:59:22.291Z,31.33
